sensor_id;sensor_type;location;lat;lon;timestamp;temperature;humidity
59067;DHT22;44854;50.838;4.438;2023-12-07T00:00:52;4.70;99.90
59067;DHT22;44854;50.838;4.438;2023-12-07T00:03:17;4.60;99.90
59067;DHT22;44854;50.838;4.438;2023-12-07T00:05:44;4.50;99.90
59067;DHT22;44854;50.838;4.438;2023-12-07T00:08:10;4.50;99.90
59067;DHT22;44854;50.838;4.438;2023-12-07T00:10:36;4.60;99.90
59067;DHT22;44854;50.838;4.438;2023-12-07T00:13:02;4.50;99.90
59067;DHT22;44854;50.838;4.438;2023-12-07T00:15:28;4.70;99.90
59067;DHT22;44854;50.838;4.438;2023-12-07T00:17:53;4.60;99.90
59067;DHT22;44854;50.838;4.438;2023-12-07T00:20:19;4.70;99.90
59067;DHT22;44854;50.838;4.438;2023-12-07T00:22:45;4.70;99.90
59067;DHT22;44854;50.838;4.438;2023-12-07T00:25:11;4.90;99.90
59067;DHT22;44854;50.838;4.438;2023-12-07T00:27:36;4.80;99.90
59067;DHT22;44854;50.838;4.438;2023-12-07T00:30:02;4.70;99.90
59067;DHT22;44854;50.838;4.438;2023-12-07T00:32:29;4.80;99.90
59067;DHT22;44854;50.838;4.438;2023-12-07T00:34:55;4.70;99.90
59067;DHT22;44854;50.838;4.438;2023-12-07T00:37:21;4.80;99.90
59067;DHT22;44854;50.838;4.438;2023-12-07T00:39:47;4.80;99.90
59067;DHT22;44854;50.838;4.438;2023-12-07T00:42:13;4.70;99.90
59067;DHT22;44854;50.838;4.438;2023-12-07T00:44:39;4.70;99.90
59067;DHT22;44854;50.838;4.438;2023-12-07T00:47:06;4.90;99.90
59067;DHT22;44854;50.838;4.438;2023-12-07T00:49:31;5.00;99.90
59067;DHT22;44854;50.838;4.438;2023-12-07T00:51:57;4.90;99.90
59067;DHT22;44854;50.838;4.438;2023-12-07T00:54:23;4.80;99.90
59067;DHT22;44854;50.838;4.438;2023-12-07T00:56:49;4.80;99.90
59067;DHT22;44854;50.838;4.438;2023-12-07T00:59:14;4.90;99.90
59067;DHT22;44854;50.838;4.438;2023-12-07T01:01:40;4.90;99.90
59067;DHT22;44854;50.838;4.438;2023-12-07T01:04:06;4.80;99.90
59067;DHT22;44854;50.838;4.438;2023-12-07T01:06:31;4.80;99.90
59067;DHT22;44854;50.838;4.438;2023-12-07T01:08:57;5.10;99.90
59067;DHT22;44854;50.838;4.438;2023-12-07T01:11:23;4.90;99.90
59067;DHT22;44854;50.838;4.438;2023-12-07T01:13:49;4.70;99.90
59067;DHT22;44854;50.838;4.438;2023-12-07T01:16:14;4.80;99.90
59067;DHT22;44854;50.838;4.438;2023-12-07T01:18:40;4.80;99.90
59067;DHT22;44854;50.838;4.438;2023-12-07T01:21:06;4.90;99.90
59067;DHT22;44854;50.838;4.438;2023-12-07T01:23:32;4.90;99.90
59067;DHT22;44854;50.838;4.438;2023-12-07T01:25:57;4.90;99.90
59067;DHT22;44854;50.838;4.438;2023-12-07T01:28:23;4.90;99.90
59067;DHT22;44854;50.838;4.438;2023-12-07T01:30:49;5.00;99.90
59067;DHT22;44854;50.838;4.438;2023-12-07T01:33:14;5.00;99.90
59067;DHT22;44854;50.838;4.438;2023-12-07T01:35:40;4.90;99.90
59067;DHT22;44854;50.838;4.438;2023-12-07T01:38:06;4.90;99.90
59067;DHT22;44854;50.838;4.438;2023-12-07T01:40:32;4.90;99.90
59067;DHT22;44854;50.838;4.438;2023-12-07T01:42:57;5.10;99.90
59067;DHT22;44854;50.838;4.438;2023-12-07T01:45:23;4.90;99.90
59067;DHT22;44854;50.838;4.438;2023-12-07T01:47:50;4.90;99.90
59067;DHT22;44854;50.838;4.438;2023-12-07T01:50:17;4.90;99.90
59067;DHT22;44854;50.838;4.438;2023-12-07T01:52:51;4.90;99.90
59067;DHT22;44854;50.838;4.438;2023-12-07T01:55:18;4.90;99.90
59067;DHT22;44854;50.838;4.438;2023-12-07T01:57:44;5.00;99.90
59067;DHT22;44854;50.838;4.438;2023-12-07T02:00:12;5.00;99.90
59067;DHT22;44854;50.838;4.438;2023-12-07T02:02:38;5.00;99.90
59067;DHT22;44854;50.838;4.438;2023-12-07T02:05:04;5.10;99.90
59067;DHT22;44854;50.838;4.438;2023-12-07T02:07:30;4.90;99.90
59067;DHT22;44854;50.838;4.438;2023-12-07T02:09:57;4.90;99.90
59067;DHT22;44854;50.838;4.438;2023-12-07T02:12:24;4.80;99.90
59067;DHT22;44854;50.838;4.438;2023-12-07T02:14:51;4.70;99.90
59067;DHT22;44854;50.838;4.438;2023-12-07T02:17:33;4.80;99.90
59067;DHT22;44854;50.838;4.438;2023-12-07T02:20:21;5.00;99.90
59067;DHT22;44854;50.838;4.438;2023-12-07T02:22:52;4.80;99.90
59067;DHT22;44854;50.838;4.438;2023-12-07T02:25:24;4.90;99.90
59067;DHT22;44854;50.838;4.438;2023-12-07T02:27:49;5.00;99.90
59067;DHT22;44854;50.838;4.438;2023-12-07T02:30:15;5.00;99.90
59067;DHT22;44854;50.838;4.438;2023-12-07T02:32:44;5.00;99.90
59067;DHT22;44854;50.838;4.438;2023-12-07T02:35:11;5.00;99.90
59067;DHT22;44854;50.838;4.438;2023-12-07T02:37:44;5.00;99.90
59067;DHT22;44854;50.838;4.438;2023-12-07T02:40:11;5.20;99.90
59067;DHT22;44854;50.838;4.438;2023-12-07T02:42:40;5.10;99.90
59067;DHT22;44854;50.838;4.438;2023-12-07T02:45:09;5.10;99.90
59067;DHT22;44854;50.838;4.438;2023-12-07T02:47:35;5.20;99.90
59067;DHT22;44854;50.838;4.438;2023-12-07T02:50:04;5.20;99.90
59067;DHT22;44854;50.838;4.438;2023-12-07T02:52:31;5.10;99.90
59067;DHT22;44854;50.838;4.438;2023-12-07T02:54:56;5.10;99.90
59067;DHT22;44854;50.838;4.438;2023-12-07T02:57:22;5.20;99.90
59067;DHT22;44854;50.838;4.438;2023-12-07T02:59:48;5.10;99.90
59067;DHT22;44854;50.838;4.438;2023-12-07T03:02:13;5.10;99.90
59067;DHT22;44854;50.838;4.438;2023-12-07T03:04:39;5.10;99.90
59067;DHT22;44854;50.838;4.438;2023-12-07T03:07:05;5.30;99.90
59067;DHT22;44854;50.838;4.438;2023-12-07T03:09:30;5.10;99.90
59067;DHT22;44854;50.838;4.438;2023-12-07T03:11:56;5.30;99.90
59067;DHT22;44854;50.838;4.438;2023-12-07T03:14:22;5.20;99.90
59067;DHT22;44854;50.838;4.438;2023-12-07T03:16:47;5.30;99.90
59067;DHT22;44854;50.838;4.438;2023-12-07T03:19:13;5.40;99.90
59067;DHT22;44854;50.838;4.438;2023-12-07T03:21:40;5.40;99.90
59067;DHT22;44854;50.838;4.438;2023-12-07T03:24:07;5.40;99.90
59067;DHT22;44854;50.838;4.438;2023-12-07T03:26:33;5.10;99.90
59067;DHT22;44854;50.838;4.438;2023-12-07T03:28:59;5.10;99.90
59067;DHT22;44854;50.838;4.438;2023-12-07T03:31:25;5.20;99.90
59067;DHT22;44854;50.838;4.438;2023-12-07T03:33:51;5.20;99.90
59067;DHT22;44854;50.838;4.438;2023-12-07T03:36:16;5.10;99.90
59067;DHT22;44854;50.838;4.438;2023-12-07T03:38:42;5.10;99.90
59067;DHT22;44854;50.838;4.438;2023-12-07T03:41:08;5.10;99.90
59067;DHT22;44854;50.838;4.438;2023-12-07T03:43:34;5.20;99.90
59067;DHT22;44854;50.838;4.438;2023-12-07T03:45:59;5.20;99.90
59067;DHT22;44854;50.838;4.438;2023-12-07T03:48:25;5.20;99.90
59067;DHT22;44854;50.838;4.438;2023-12-07T03:50:50;5.10;99.90
59067;DHT22;44854;50.838;4.438;2023-12-07T03:53:16;5.20;99.90
59067;DHT22;44854;50.838;4.438;2023-12-07T03:55:42;5.20;99.90
59067;DHT22;44854;50.838;4.438;2023-12-07T03:58:08;5.20;99.90
59067;DHT22;44854;50.838;4.438;2023-12-07T04:00:33;5.20;99.90
59067;DHT22;44854;50.838;4.438;2023-12-07T04:02:59;5.40;99.90
59067;DHT22;44854;50.838;4.438;2023-12-07T04:05:25;5.30;99.90
59067;DHT22;44854;50.838;4.438;2023-12-07T04:07:50;5.30;99.90
59067;DHT22;44854;50.838;4.438;2023-12-07T04:10:16;5.40;99.90
59067;DHT22;44854;50.838;4.438;2023-12-07T04:12:42;5.40;99.90
59067;DHT22;44854;50.838;4.438;2023-12-07T04:15:08;5.20;99.90
59067;DHT22;44854;50.838;4.438;2023-12-07T04:17:34;5.10;99.90
59067;DHT22;44854;50.838;4.438;2023-12-07T04:19:59;5.20;99.90
59067;DHT22;44854;50.838;4.438;2023-12-07T04:22:25;5.10;99.90
59067;DHT22;44854;50.838;4.438;2023-12-07T04:24:51;5.10;99.90
59067;DHT22;44854;50.838;4.438;2023-12-07T04:27:16;5.10;99.90
59067;DHT22;44854;50.838;4.438;2023-12-07T04:29:42;5.30;99.90
59067;DHT22;44854;50.838;4.438;2023-12-07T04:32:08;5.20;99.90
59067;DHT22;44854;50.838;4.438;2023-12-07T04:34:34;5.20;99.90
59067;DHT22;44854;50.838;4.438;2023-12-07T04:36:59;5.30;99.90
59067;DHT22;44854;50.838;4.438;2023-12-07T04:39:25;5.30;99.90
59067;DHT22;44854;50.838;4.438;2023-12-07T04:41:51;5.20;99.90
59067;DHT22;44854;50.838;4.438;2023-12-07T04:44:17;5.20;99.90
59067;DHT22;44854;50.838;4.438;2023-12-07T04:46:43;5.20;99.90
59067;DHT22;44854;50.838;4.438;2023-12-07T04:49:08;5.20;99.90
59067;DHT22;44854;50.838;4.438;2023-12-07T04:51:34;5.20;99.90
59067;DHT22;44854;50.838;4.438;2023-12-07T04:54:00;5.10;99.90
59067;DHT22;44854;50.838;4.438;2023-12-07T04:56:25;5.20;99.90
59067;DHT22;44854;50.838;4.438;2023-12-07T04:58:51;5.00;99.90
59067;DHT22;44854;50.838;4.438;2023-12-07T05:01:17;5.20;99.90
59067;DHT22;44854;50.838;4.438;2023-12-07T05:03:45;5.10;99.90
59067;DHT22;44854;50.838;4.438;2023-12-07T05:06:10;5.10;99.90
59067;DHT22;44854;50.838;4.438;2023-12-07T05:08:36;5.10;99.90
59067;DHT22;44854;50.838;4.438;2023-12-07T05:11:02;5.00;99.90
59067;DHT22;44854;50.838;4.438;2023-12-07T05:13:27;5.10;99.90
59067;DHT22;44854;50.838;4.438;2023-12-07T05:15:53;5.10;99.90
59067;DHT22;44854;50.838;4.438;2023-12-07T05:18:19;5.10;99.90
59067;DHT22;44854;50.838;4.438;2023-12-07T05:20:44;5.00;99.90
59067;DHT22;44854;50.838;4.438;2023-12-07T05:23:10;5.00;99.90
59067;DHT22;44854;50.838;4.438;2023-12-07T05:25:36;5.00;99.90
59067;DHT22;44854;50.838;4.438;2023-12-07T05:28:01;5.00;99.90
59067;DHT22;44854;50.838;4.438;2023-12-07T05:30:27;4.90;99.90
59067;DHT22;44854;50.838;4.438;2023-12-07T05:32:53;5.00;99.90
59067;DHT22;44854;50.838;4.438;2023-12-07T05:35:19;5.10;99.90
59067;DHT22;44854;50.838;4.438;2023-12-07T05:37:45;5.00;99.90
59067;DHT22;44854;50.838;4.438;2023-12-07T05:40:11;5.10;99.90
59067;DHT22;44854;50.838;4.438;2023-12-07T05:42:38;5.10;99.90
59067;DHT22;44854;50.838;4.438;2023-12-07T05:45:04;5.00;99.90
59067;DHT22;44854;50.838;4.438;2023-12-07T05:47:31;5.00;99.90
59067;DHT22;44854;50.838;4.438;2023-12-07T05:49:58;5.00;99.90
59067;DHT22;44854;50.838;4.438;2023-12-07T05:52:25;5.00;99.90
59067;DHT22;44854;50.838;4.438;2023-12-07T05:54:51;5.00;99.90
59067;DHT22;44854;50.838;4.438;2023-12-07T05:57:16;5.10;99.90
59067;DHT22;44854;50.838;4.438;2023-12-07T05:59:42;5.00;99.90
59067;DHT22;44854;50.838;4.438;2023-12-07T06:02:09;5.00;99.90
59067;DHT22;44854;50.838;4.438;2023-12-07T06:04:34;4.90;99.90
59067;DHT22;44854;50.838;4.438;2023-12-07T06:07:00;4.90;99.90
59067;DHT22;44854;50.838;4.438;2023-12-07T06:09:26;4.90;99.90
59067;DHT22;44854;50.838;4.438;2023-12-07T06:11:52;4.90;99.90
59067;DHT22;44854;50.838;4.438;2023-12-07T06:14:17;4.90;99.90
59067;DHT22;44854;50.838;4.438;2023-12-07T06:16:43;4.80;99.90
59067;DHT22;44854;50.838;4.438;2023-12-07T06:19:08;4.90;99.90
59067;DHT22;44854;50.838;4.438;2023-12-07T06:21:34;4.90;99.90
59067;DHT22;44854;50.838;4.438;2023-12-07T06:24:00;4.80;99.90
59067;DHT22;44854;50.838;4.438;2023-12-07T06:26:26;4.90;99.90
59067;DHT22;44854;50.838;4.438;2023-12-07T06:28:51;4.90;99.90
59067;DHT22;44854;50.838;4.438;2023-12-07T06:31:17;5.00;99.90
59067;DHT22;44854;50.838;4.438;2023-12-07T06:33:45;4.90;99.90
59067;DHT22;44854;50.838;4.438;2023-12-07T06:36:11;5.00;99.90
59067;DHT22;44854;50.838;4.438;2023-12-07T06:38:42;5.00;99.90
59067;DHT22;44854;50.838;4.438;2023-12-07T06:41:08;4.90;99.90
59067;DHT22;44854;50.838;4.438;2023-12-07T06:43:34;4.90;99.90
59067;DHT22;44854;50.838;4.438;2023-12-07T06:45:59;4.80;99.90
59067;DHT22;44854;50.838;4.438;2023-12-07T06:48:25;4.90;99.90
59067;DHT22;44854;50.838;4.438;2023-12-07T06:50:51;5.00;99.90
59067;DHT22;44854;50.838;4.438;2023-12-07T06:53:16;5.00;99.90
59067;DHT22;44854;50.838;4.438;2023-12-07T06:55:44;4.90;99.90
59067;DHT22;44854;50.838;4.438;2023-12-07T06:58:09;4.90;99.90
59067;DHT22;44854;50.838;4.438;2023-12-07T07:00:36;5.00;99.90
59067;DHT22;44854;50.838;4.438;2023-12-07T07:03:02;4.90;99.90
59067;DHT22;44854;50.838;4.438;2023-12-07T07:05:28;4.90;99.90
59067;DHT22;44854;50.838;4.438;2023-12-07T07:07:53;4.90;99.90
59067;DHT22;44854;50.838;4.438;2023-12-07T07:10:21;4.90;99.90
59067;DHT22;44854;50.838;4.438;2023-12-07T07:12:47;4.90;99.90
59067;DHT22;44854;50.838;4.438;2023-12-07T07:15:12;5.00;99.90
59067;DHT22;44854;50.838;4.438;2023-12-07T07:17:38;4.90;99.90
59067;DHT22;44854;50.838;4.438;2023-12-07T07:20:04;5.00;99.90
59067;DHT22;44854;50.838;4.438;2023-12-07T07:22:30;5.00;99.90
59067;DHT22;44854;50.838;4.438;2023-12-07T07:24:56;5.00;99.90
59067;DHT22;44854;50.838;4.438;2023-12-07T07:27:22;5.00;99.90
59067;DHT22;44854;50.838;4.438;2023-12-07T07:29:47;5.00;99.90
59067;DHT22;44854;50.838;4.438;2023-12-07T07:32:14;5.00;99.90
59067;DHT22;44854;50.838;4.438;2023-12-07T07:34:41;5.00;99.90
59067;DHT22;44854;50.838;4.438;2023-12-07T07:37:07;5.00;99.90
59067;DHT22;44854;50.838;4.438;2023-12-07T07:39:32;5.00;99.90
59067;DHT22;44854;50.838;4.438;2023-12-07T07:41:58;4.90;99.90
59067;DHT22;44854;50.838;4.438;2023-12-07T07:44:25;5.00;99.90
59067;DHT22;44854;50.838;4.438;2023-12-07T07:46:51;4.90;99.90
59067;DHT22;44854;50.838;4.438;2023-12-07T07:49:16;4.90;99.90
59067;DHT22;44854;50.838;4.438;2023-12-07T07:51:42;4.80;99.90
59067;DHT22;44854;50.838;4.438;2023-12-07T07:54:08;4.70;99.90
59067;DHT22;44854;50.838;4.438;2023-12-07T07:56:33;4.80;99.90
59067;DHT22;44854;50.838;4.438;2023-12-07T07:59:00;4.70;99.90
59067;DHT22;44854;50.838;4.438;2023-12-07T08:01:26;4.80;99.90
59067;DHT22;44854;50.838;4.438;2023-12-07T08:03:52;4.80;99.90
59067;DHT22;44854;50.838;4.438;2023-12-07T08:06:21;4.90;99.90
59067;DHT22;44854;50.838;4.438;2023-12-07T08:08:50;4.90;99.90
59067;DHT22;44854;50.838;4.438;2023-12-07T08:11:15;5.00;99.90
59067;DHT22;44854;50.838;4.438;2023-12-07T08:13:41;5.00;99.90
59067;DHT22;44854;50.838;4.438;2023-12-07T08:16:09;5.10;99.90
59067;DHT22;44854;50.838;4.438;2023-12-07T08:18:35;5.20;99.90
59067;DHT22;44854;50.838;4.438;2023-12-07T08:21:01;5.20;99.90
59067;DHT22;44854;50.838;4.438;2023-12-07T08:23:27;5.20;99.90
59067;DHT22;44854;50.838;4.438;2023-12-07T08:25:53;5.10;99.90
59067;DHT22;44854;50.838;4.438;2023-12-07T08:28:22;5.20;99.90
59067;DHT22;44854;50.838;4.438;2023-12-07T08:30:48;5.40;99.90
59067;DHT22;44854;50.838;4.438;2023-12-07T08:33:14;5.40;99.90
59067;DHT22;44854;50.838;4.438;2023-12-07T08:35:39;5.30;99.90
59067;DHT22;44854;50.838;4.438;2023-12-07T08:38:05;5.30;99.90
59067;DHT22;44854;50.838;4.438;2023-12-07T08:40:31;5.30;99.90
59067;DHT22;44854;50.838;4.438;2023-12-07T08:42:57;5.30;99.90
59067;DHT22;44854;50.838;4.438;2023-12-07T08:45:23;5.40;99.90
59067;DHT22;44854;50.838;4.438;2023-12-07T08:47:52;5.40;99.90
59067;DHT22;44854;50.838;4.438;2023-12-07T08:50:18;5.40;99.90
59067;DHT22;44854;50.838;4.438;2023-12-07T08:52:43;5.40;99.90
59067;DHT22;44854;50.838;4.438;2023-12-07T08:55:10;5.40;99.90
59067;DHT22;44854;50.838;4.438;2023-12-07T08:57:35;5.40;99.90
59067;DHT22;44854;50.838;4.438;2023-12-07T09:00:01;5.40;99.90
59067;DHT22;44854;50.838;4.438;2023-12-07T09:02:30;5.50;99.90
59067;DHT22;44854;50.838;4.438;2023-12-07T09:04:56;5.60;99.90
59067;DHT22;44854;50.838;4.438;2023-12-07T09:07:21;5.60;99.90
59067;DHT22;44854;50.838;4.438;2023-12-07T09:09:47;5.60;99.90
59067;DHT22;44854;50.838;4.438;2023-12-07T09:12:14;5.80;99.90
59067;DHT22;44854;50.838;4.438;2023-12-07T09:14:40;5.80;99.90
59067;DHT22;44854;50.838;4.438;2023-12-07T09:17:06;5.90;99.90
59067;DHT22;44854;50.838;4.438;2023-12-07T09:19:31;6.00;99.90
59067;DHT22;44854;50.838;4.438;2023-12-07T09:21:57;5.80;99.90
59067;DHT22;44854;50.838;4.438;2023-12-07T09:24:24;6.10;99.90
59067;DHT22;44854;50.838;4.438;2023-12-07T09:26:50;5.90;99.90
59067;DHT22;44854;50.838;4.438;2023-12-07T09:29:15;5.80;99.90
59067;DHT22;44854;50.838;4.438;2023-12-07T09:31:41;5.90;99.90
59067;DHT22;44854;50.838;4.438;2023-12-07T09:34:07;5.80;99.90
59067;DHT22;44854;50.838;4.438;2023-12-07T09:36:34;5.90;99.90
59067;DHT22;44854;50.838;4.438;2023-12-07T09:39:00;5.80;99.90
59067;DHT22;44854;50.838;4.438;2023-12-07T09:41:27;5.80;99.90
59067;DHT22;44854;50.838;4.438;2023-12-07T09:43:54;5.90;99.90
59067;DHT22;44854;50.838;4.438;2023-12-07T09:46:20;6.00;99.90
59067;DHT22;44854;50.838;4.438;2023-12-07T09:48:48;5.80;99.90
59067;DHT22;44854;50.838;4.438;2023-12-07T09:51:15;5.90;99.90
59067;DHT22;44854;50.838;4.438;2023-12-07T09:53:42;5.90;99.90
59067;DHT22;44854;50.838;4.438;2023-12-07T09:56:10;5.90;99.90
59067;DHT22;44854;50.838;4.438;2023-12-07T09:58:36;6.00;99.90
59067;DHT22;44854;50.838;4.438;2023-12-07T10:01:02;6.00;99.90
59067;DHT22;44854;50.838;4.438;2023-12-07T10:03:27;6.00;99.90
59067;DHT22;44854;50.838;4.438;2023-12-07T10:05:57;6.10;99.90
59067;DHT22;44854;50.838;4.438;2023-12-07T10:08:53;6.20;99.90
59067;DHT22;44854;50.838;4.438;2023-12-07T10:11:28;6.20;99.90
59067;DHT22;44854;50.838;4.438;2023-12-07T10:13:54;6.20;99.90
59067;DHT22;44854;50.838;4.438;2023-12-07T10:16:20;6.40;99.90
59067;DHT22;44854;50.838;4.438;2023-12-07T10:18:45;6.40;99.90
59067;DHT22;44854;50.838;4.438;2023-12-07T10:21:11;6.40;99.90
59067;DHT22;44854;50.838;4.438;2023-12-07T10:23:40;6.40;99.90
59067;DHT22;44854;50.838;4.438;2023-12-07T10:26:08;6.50;99.90
59067;DHT22;44854;50.838;4.438;2023-12-07T10:28:36;6.40;99.90
59067;DHT22;44854;50.838;4.438;2023-12-07T10:31:02;6.50;99.90
59067;DHT22;44854;50.838;4.438;2023-12-07T10:33:28;6.50;99.90
59067;DHT22;44854;50.838;4.438;2023-12-07T10:35:54;6.50;99.90
59067;DHT22;44854;50.838;4.438;2023-12-07T10:38:23;6.50;99.90
59067;DHT22;44854;50.838;4.438;2023-12-07T10:40:51;6.60;99.90
59067;DHT22;44854;50.838;4.438;2023-12-07T10:43:27;6.90;99.90
59067;DHT22;44854;50.838;4.438;2023-12-07T10:45:53;6.80;99.90
59067;DHT22;44854;50.838;4.438;2023-12-07T10:48:19;6.70;99.90
59067;DHT22;44854;50.838;4.438;2023-12-07T10:50:50;6.70;99.90
59067;DHT22;44854;50.838;4.438;2023-12-07T10:53:27;6.70;99.90
59067;DHT22;44854;50.838;4.438;2023-12-07T10:55:59;6.60;99.90
59067;DHT22;44854;50.838;4.438;2023-12-07T10:58:25;6.60;99.90
59067;DHT22;44854;50.838;4.438;2023-12-07T11:00:55;6.60;99.90
59067;DHT22;44854;50.838;4.438;2023-12-07T11:03:23;6.60;99.90
59067;DHT22;44854;50.838;4.438;2023-12-07T11:05:49;6.70;99.90
59067;DHT22;44854;50.838;4.438;2023-12-07T11:13:39;6.90;99.90
59067;DHT22;44854;50.838;4.438;2023-12-07T11:16:09;6.80;99.90
59067;DHT22;44854;50.838;4.438;2023-12-07T11:18:36;6.50;99.90
59067;DHT22;44854;50.838;4.438;2023-12-07T11:21:02;6.70;99.90
59067;DHT22;44854;50.838;4.438;2023-12-07T11:23:28;6.80;99.90
59067;DHT22;44854;50.838;4.438;2023-12-07T11:25:54;7.00;99.90
59067;DHT22;44854;50.838;4.438;2023-12-07T11:28:34;7.20;99.90
59067;DHT22;44854;50.838;4.438;2023-12-07T11:31:02;7.20;99.90
59067;DHT22;44854;50.838;4.438;2023-12-07T11:33:29;7.20;99.90
59067;DHT22;44854;50.838;4.438;2023-12-07T11:38:30;7.30;99.90
59067;DHT22;44854;50.838;4.438;2023-12-07T11:40:56;7.30;99.90
59067;DHT22;44854;50.838;4.438;2023-12-07T11:46:07;7.20;99.90
59067;DHT22;44854;50.838;4.438;2023-12-07T11:48:33;7.30;99.90
59067;DHT22;44854;50.838;4.438;2023-12-07T11:51:04;7.20;99.90
59067;DHT22;44854;50.838;4.438;2023-12-07T11:53:32;7.30;99.90
59067;DHT22;44854;50.838;4.438;2023-12-07T11:56:02;7.40;99.90
59067;DHT22;44854;50.838;4.438;2023-12-07T11:58:30;7.40;99.90
59067;DHT22;44854;50.838;4.438;2023-12-07T12:00:56;7.40;99.90
59067;DHT22;44854;50.838;4.438;2023-12-07T12:03:23;7.40;99.90
59067;DHT22;44854;50.838;4.438;2023-12-07T12:05:49;7.50;99.90
59067;DHT22;44854;50.838;4.438;2023-12-07T12:08:16;7.70;99.90
59067;DHT22;44854;50.838;4.438;2023-12-07T12:10:46;7.70;99.90
59067;DHT22;44854;50.838;4.438;2023-12-07T12:13:12;7.60;99.90
59067;DHT22;44854;50.838;4.438;2023-12-07T12:15:39;7.50;99.90
59067;DHT22;44854;50.838;4.438;2023-12-07T12:18:08;7.50;99.90
59067;DHT22;44854;50.838;4.438;2023-12-07T12:20:35;7.40;99.90
59067;DHT22;44854;50.838;4.438;2023-12-07T12:23:01;7.40;99.90
59067;DHT22;44854;50.838;4.438;2023-12-07T12:25:29;7.40;99.90
59067;DHT22;44854;50.838;4.438;2023-12-07T12:27:57;7.40;99.90
59067;DHT22;44854;50.838;4.438;2023-12-07T12:30:23;7.60;99.90
59067;DHT22;44854;50.838;4.438;2023-12-07T12:32:50;7.60;99.90
59067;DHT22;44854;50.838;4.438;2023-12-07T12:35:18;7.50;99.90
59067;DHT22;44854;50.838;4.438;2023-12-07T12:37:45;7.40;99.90
59067;DHT22;44854;50.838;4.438;2023-12-07T12:40:12;7.40;99.90
59067;DHT22;44854;50.838;4.438;2023-12-07T12:42:42;7.50;99.90
59067;DHT22;44854;50.838;4.438;2023-12-07T12:45:09;7.40;99.90
59067;DHT22;44854;50.838;4.438;2023-12-07T12:47:36;7.60;99.90
59067;DHT22;44854;50.838;4.438;2023-12-07T12:50:03;7.80;99.90
59067;DHT22;44854;50.838;4.438;2023-12-07T12:52:30;7.70;99.90
59067;DHT22;44854;50.838;4.438;2023-12-07T12:54:56;7.70;99.90
59067;DHT22;44854;50.838;4.438;2023-12-07T12:57:23;7.60;99.90
59067;DHT22;44854;50.838;4.438;2023-12-07T12:59:50;7.60;99.90
59067;DHT22;44854;50.838;4.438;2023-12-07T13:02:16;7.60;99.90
59067;DHT22;44854;50.838;4.438;2023-12-07T13:04:41;7.60;99.90
59067;DHT22;44854;50.838;4.438;2023-12-07T13:07:07;7.50;99.90
59067;DHT22;44854;50.838;4.438;2023-12-07T13:09:33;7.70;99.90
59067;DHT22;44854;50.838;4.438;2023-12-07T13:11:59;7.80;99.90
59067;DHT22;44854;50.838;4.438;2023-12-07T13:14:25;7.80;99.90
59067;DHT22;44854;50.838;4.438;2023-12-07T13:16:50;7.90;99.90
59067;DHT22;44854;50.838;4.438;2023-12-07T13:19:16;7.90;99.90
59067;DHT22;44854;50.838;4.438;2023-12-07T13:21:42;7.70;99.90
59067;DHT22;44854;50.838;4.438;2023-12-07T13:24:07;7.60;99.90
59067;DHT22;44854;50.838;4.438;2023-12-07T13:26:38;7.70;99.90
59067;DHT22;44854;50.838;4.438;2023-12-07T13:29:04;7.80;99.90
59067;DHT22;44854;50.838;4.438;2023-12-07T13:31:30;7.90;99.90
59067;DHT22;44854;50.838;4.438;2023-12-07T13:33:57;7.90;99.90
59067;DHT22;44854;50.838;4.438;2023-12-07T13:36:23;7.80;99.90
59067;DHT22;44854;50.838;4.438;2023-12-07T13:38:51;7.80;99.90
59067;DHT22;44854;50.838;4.438;2023-12-07T13:41:17;7.70;99.90
59067;DHT22;44854;50.838;4.438;2023-12-07T13:43:42;7.70;99.90
59067;DHT22;44854;50.838;4.438;2023-12-07T13:46:08;7.60;99.90
59067;DHT22;44854;50.838;4.438;2023-12-07T13:48:35;7.60;99.90
59067;DHT22;44854;50.838;4.438;2023-12-07T13:51:01;7.70;99.90
59067;DHT22;44854;50.838;4.438;2023-12-07T13:53:28;7.70;99.90
59067;DHT22;44854;50.838;4.438;2023-12-07T13:55:53;7.60;99.90
59067;DHT22;44854;50.838;4.438;2023-12-07T13:58:19;7.60;99.90
59067;DHT22;44854;50.838;4.438;2023-12-07T14:00:46;7.50;99.90
59067;DHT22;44854;50.838;4.438;2023-12-07T14:03:12;7.60;99.90
59067;DHT22;44854;50.838;4.438;2023-12-07T14:05:41;7.60;99.90
59067;DHT22;44854;50.838;4.438;2023-12-07T14:08:07;7.70;99.90
59067;DHT22;44854;50.838;4.438;2023-12-07T14:10:34;7.60;99.90
59067;DHT22;44854;50.838;4.438;2023-12-07T14:13:00;7.40;99.90
59067;DHT22;44854;50.838;4.438;2023-12-07T14:15:26;7.50;99.90
59067;DHT22;44854;50.838;4.438;2023-12-07T14:17:52;7.40;99.90
59067;DHT22;44854;50.838;4.438;2023-12-07T14:20:18;7.40;99.90
59067;DHT22;44854;50.838;4.438;2023-12-07T14:22:45;7.30;99.90
59067;DHT22;44854;50.838;4.438;2023-12-07T14:25:11;7.30;99.90
59067;DHT22;44854;50.838;4.438;2023-12-07T14:27:37;7.40;99.90
59067;DHT22;44854;50.838;4.438;2023-12-07T14:30:03;7.40;99.90
59067;DHT22;44854;50.838;4.438;2023-12-07T14:32:29;7.40;99.90
59067;DHT22;44854;50.838;4.438;2023-12-07T14:34:55;7.30;99.90
59067;DHT22;44854;50.838;4.438;2023-12-07T14:37:21;7.40;99.90
59067;DHT22;44854;50.838;4.438;2023-12-07T14:39:46;7.40;99.90
59067;DHT22;44854;50.838;4.438;2023-12-07T14:42:13;7.60;99.90
59067;DHT22;44854;50.838;4.438;2023-12-07T14:44:39;7.70;99.90
59067;DHT22;44854;50.838;4.438;2023-12-07T14:47:05;7.60;99.90
59067;DHT22;44854;50.838;4.438;2023-12-07T14:49:31;7.50;99.90
59067;DHT22;44854;50.838;4.438;2023-12-07T14:51:56;7.50;99.90
59067;DHT22;44854;50.838;4.438;2023-12-07T14:54:24;7.50;99.90
59067;DHT22;44854;50.838;4.438;2023-12-07T14:56:50;7.40;99.90
59067;DHT22;44854;50.838;4.438;2023-12-07T14:59:15;7.40;99.90
59067;DHT22;44854;50.838;4.438;2023-12-07T15:01:42;7.40;99.90
59067;DHT22;44854;50.838;4.438;2023-12-07T15:04:08;7.30;99.90
59067;DHT22;44854;50.838;4.438;2023-12-07T15:06:34;7.20;99.90
59067;DHT22;44854;50.838;4.438;2023-12-07T15:09:00;7.10;99.90
59067;DHT22;44854;50.838;4.438;2023-12-07T15:11:28;7.30;99.90
59067;DHT22;44854;50.838;4.438;2023-12-07T15:13:54;7.10;99.90
59067;DHT22;44854;50.838;4.438;2023-12-07T15:16:19;7.10;99.90
59067;DHT22;44854;50.838;4.438;2023-12-07T15:18:45;7.00;99.90
59067;DHT22;44854;50.838;4.438;2023-12-07T15:21:12;7.20;99.90
59067;DHT22;44854;50.838;4.438;2023-12-07T15:23:42;7.30;99.90
59067;DHT22;44854;50.838;4.438;2023-12-07T15:26:09;7.50;99.90
59067;DHT22;44854;50.838;4.438;2023-12-07T15:28:36;7.40;99.90
59067;DHT22;44854;50.838;4.438;2023-12-07T15:31:03;7.40;99.90
59067;DHT22;44854;50.838;4.438;2023-12-07T15:33:29;7.40;99.90
59067;DHT22;44854;50.838;4.438;2023-12-07T15:35:56;7.40;99.90
59067;DHT22;44854;50.838;4.438;2023-12-07T15:38:22;7.30;99.90
59067;DHT22;44854;50.838;4.438;2023-12-07T15:40:48;7.30;99.90
59067;DHT22;44854;50.838;4.438;2023-12-07T15:43:14;7.30;99.90
59067;DHT22;44854;50.838;4.438;2023-12-07T15:45:40;7.30;99.90
59067;DHT22;44854;50.838;4.438;2023-12-07T15:48:05;7.20;99.90
59067;DHT22;44854;50.838;4.438;2023-12-07T15:50:32;7.30;99.90